sensor_id;sensor_type;location;lat;lon;timestamp;P1;durP1;ratioP1;P2;durP2;ratioP2
82760;SDS011;72498;42.022;21.444;2024-02-23T00:00:50;49.30;;;26.50;;
82760;SDS011;72498;42.022;21.444;2024-02-23T00:03:19;52.75;;;28.67;;
82760;SDS011;72498;42.022;21.444;2024-02-23T00:05:45;50.58;;;29.40;;
82760;SDS011;72498;42.022;21.444;2024-02-23T00:08:13;48.00;;;27.35;;
82760;SDS011;72498;42.022;21.444;2024-02-23T00:10:42;49.28;;;25.77;;
82760;SDS011;72498;42.022;21.444;2024-02-23T00:13:08;44.72;;;25.50;;
82760;SDS011;72498;42.022;21.444;2024-02-23T00:15:34;50.83;;;27.05;;
82760;SDS011;72498;42.022;21.444;2024-02-23T00:18:00;51.17;;;26.15;;
82760;SDS011;72498;42.022;21.444;2024-02-23T00:20:31;45.15;;;26.17;;
82760;SDS011;72498;42.022;21.444;2024-02-23T00:22:57;46.38;;;26.13;;
82760;SDS011;72498;42.022;21.444;2024-02-23T00:25:26;43.35;;;23.55;;
82760;SDS011;72498;42.022;21.444;2024-02-23T00:27:52;44.55;;;25.90;;
82760;SDS011;72498;42.022;21.444;2024-02-23T00:30:23;50.50;;;25.35;;
82760;SDS011;72498;42.022;21.444;2024-02-23T00:32:49;43.13;;;24.55;;
82760;SDS011;72498;42.022;21.444;2024-02-23T00:35:15;44.00;;;24.75;;
82760;SDS011;72498;42.022;21.444;2024-02-23T00:37:41;42.38;;;23.38;;
82760;SDS011;72498;42.022;21.444;2024-02-23T00:40:07;40.65;;;24.15;;
82760;SDS011;72498;42.022;21.444;2024-02-23T00:42:36;41.92;;;23.58;;
82760;SDS011;72498;42.022;21.444;2024-02-23T00:45:05;46.85;;;23.20;;
82760;SDS011;72498;42.022;21.444;2024-02-23T00:47:31;46.78;;;24.27;;
82760;SDS011;72498;42.022;21.444;2024-02-23T00:49:57;49.33;;;25.05;;
82760;SDS011;72498;42.022;21.444;2024-02-23T00:52:24;41.65;;;23.92;;
82760;SDS011;72498;42.022;21.444;2024-02-23T00:54:50;43.17;;;23.08;;
82760;SDS011;72498;42.022;21.444;2024-02-23T00:57:16;45.17;;;23.80;;
82760;SDS011;72498;42.022;21.444;2024-02-23T00:59:49;39.05;;;22.88;;
82760;SDS011;72498;42.022;21.444;2024-02-23T01:02:15;42.03;;;23.10;;
82760;SDS011;72498;42.022;21.444;2024-02-23T01:04:41;38.03;;;21.67;;
82760;SDS011;72498;42.022;21.444;2024-02-23T01:07:07;39.80;;;22.08;;
82760;SDS011;72498;42.022;21.444;2024-02-23T01:09:34;42.42;;;23.33;;
82760;SDS011;72498;42.022;21.444;2024-02-23T01:12:00;50.75;;;25.00;;
82760;SDS011;72498;42.022;21.444;2024-02-23T01:14:26;51.60;;;24.75;;
82760;SDS011;72498;42.022;21.444;2024-02-23T01:16:52;46.42;;;25.13;;
82760;SDS011;72498;42.022;21.444;2024-02-23T01:19:18;47.00;;;23.50;;
82760;SDS011;72498;42.022;21.444;2024-02-23T01:21:44;44.00;;;24.05;;
82760;SDS011;72498;42.022;21.444;2024-02-23T01:24:10;48.10;;;25.58;;
82760;SDS011;72498;42.022;21.444;2024-02-23T01:26:37;50.22;;;23.92;;
82760;SDS011;72498;42.022;21.444;2024-02-23T01:29:03;47.35;;;24.20;;
82760;SDS011;72498;42.022;21.444;2024-02-23T01:31:33;45.53;;;23.58;;
82760;SDS011;72498;42.022;21.444;2024-02-23T01:33:59;47.40;;;23.05;;
82760;SDS011;72498;42.022;21.444;2024-02-23T01:36:25;45.63;;;25.33;;
82760;SDS011;72498;42.022;21.444;2024-02-23T01:38:54;41.72;;;24.15;;
82760;SDS011;72498;42.022;21.444;2024-02-23T01:41:21;42.70;;;22.67;;
82760;SDS011;72498;42.022;21.444;2024-02-23T01:43:50;47.38;;;25.20;;
82760;SDS011;72498;42.022;21.444;2024-02-23T01:46:16;42.53;;;24.83;;
82760;SDS011;72498;42.022;21.444;2024-02-23T01:48:44;45.75;;;24.02;;
82760;SDS011;72498;42.022;21.444;2024-02-23T01:51:11;43.38;;;22.60;;
82760;SDS011;72498;42.022;21.444;2024-02-23T01:53:38;41.97;;;22.75;;
82760;SDS011;72498;42.022;21.444;2024-02-23T01:56:04;44.47;;;23.58;;
82760;SDS011;72498;42.022;21.444;2024-02-23T01:58:31;41.03;;;23.95;;
82760;SDS011;72498;42.022;21.444;2024-02-23T02:01:02;43.67;;;24.27;;
82760;SDS011;72498;42.022;21.444;2024-02-23T02:05:57;46.30;;;24.00;;
82760;SDS011;72498;42.022;21.444;2024-02-23T02:08:26;32.72;;;20.10;;
82760;SDS011;72498;42.022;21.444;2024-02-23T02:10:52;42.00;;;23.10;;
82760;SDS011;72498;42.022;21.444;2024-02-23T02:13:19;44.13;;;22.70;;
82760;SDS011;72498;42.022;21.444;2024-02-23T02:15:47;39.78;;;22.58;;
82760;SDS011;72498;42.022;21.444;2024-02-23T02:18:13;38.28;;;22.48;;
82760;SDS011;72498;42.022;21.444;2024-02-23T02:20:40;40.17;;;21.70;;
82760;SDS011;72498;42.022;21.444;2024-02-23T02:23:16;38.40;;;20.52;;
82760;SDS011;72498;42.022;21.444;2024-02-23T02:25:42;44.22;;;22.77;;
82760;SDS011;72498;42.022;21.444;2024-02-23T02:28:11;41.30;;;22.17;;
82760;SDS011;72498;42.022;21.444;2024-02-23T02:30:37;39.70;;;22.13;;
82760;SDS011;72498;42.022;21.444;2024-02-23T02:33:06;39.35;;;21.50;;
82760;SDS011;72498;42.022;21.444;2024-02-23T02:35:32;36.05;;;20.73;;
82760;SDS011;72498;42.022;21.444;2024-02-23T02:37:59;38.83;;;23.08;;
82760;SDS011;72498;42.022;21.444;2024-02-23T02:40:25;43.70;;;21.98;;
82760;SDS011;72498;42.022;21.444;2024-02-23T02:42:51;37.10;;;22.70;;
82760;SDS011;72498;42.022;21.444;2024-02-23T02:45:17;46.05;;;22.23;;
82760;SDS011;72498;42.022;21.444;2024-02-23T02:47:44;36.15;;;19.88;;
82760;SDS011;72498;42.022;21.444;2024-02-23T02:50:10;38.15;;;19.45;;
82760;SDS011;72498;42.022;21.444;2024-02-23T02:52:36;38.70;;;21.98;;
82760;SDS011;72498;42.022;21.444;2024-02-23T02:55:02;37.85;;;21.27;;
82760;SDS011;72498;42.022;21.444;2024-02-23T02:57:29;40.88;;;20.10;;
82760;SDS011;72498;42.022;21.444;2024-02-23T02:59:55;40.33;;;22.15;;
82760;SDS011;72498;42.022;21.444;2024-02-23T03:02:21;38.50;;;22.60;;
82760;SDS011;72498;42.022;21.444;2024-02-23T03:04:48;38.67;;;21.58;;
82760;SDS011;72498;42.022;21.444;2024-02-23T03:07:14;37.75;;;21.58;;
82760;SDS011;72498;42.022;21.444;2024-02-23T03:09:40;39.80;;;21.25;;
82760;SDS011;72498;42.022;21.444;2024-02-23T03:12:07;41.45;;;21.45;;
82760;SDS011;72498;42.022;21.444;2024-02-23T03:14:35;37.92;;;20.92;;
82760;SDS011;72498;42.022;21.444;2024-02-23T03:17:06;39.58;;;22.33;;
82760;SDS011;72498;42.022;21.444;2024-02-23T03:19:32;36.70;;;20.42;;
82760;SDS011;72498;42.022;21.444;2024-02-23T03:21:59;40.00;;;21.00;;
82760;SDS011;72498;42.022;21.444;2024-02-23T03:24:25;35.55;;;20.63;;
82760;SDS011;72498;42.022;21.444;2024-02-23T03:26:51;40.38;;;19.77;;
82760;SDS011;72498;42.022;21.444;2024-02-23T03:29:19;40.40;;;20.73;;
82760;SDS011;72498;42.022;21.444;2024-02-23T03:31:47;37.88;;;21.30;;
82760;SDS011;72498;42.022;21.444;2024-02-23T03:34:13;39.40;;;21.73;;
82760;SDS011;72498;42.022;21.444;2024-02-23T03:36:40;41.13;;;20.45;;
82760;SDS011;72498;42.022;21.444;2024-02-23T03:39:07;40.10;;;21.70;;
82760;SDS011;72498;42.022;21.444;2024-02-23T03:41:33;37.70;;;21.05;;
82760;SDS011;72498;42.022;21.444;2024-02-23T03:43:59;37.95;;;19.33;;
82760;SDS011;72498;42.022;21.444;2024-02-23T03:46:26;40.33;;;21.85;;
82760;SDS011;72498;42.022;21.444;2024-02-23T03:48:52;37.03;;;20.98;;
82760;SDS011;72498;42.022;21.444;2024-02-23T03:51:18;36.60;;;19.17;;
82760;SDS011;72498;42.022;21.444;2024-02-23T03:53:44;38.47;;;21.30;;
82760;SDS011;72498;42.022;21.444;2024-02-23T03:56:11;38.90;;;20.60;;
82760;SDS011;72498;42.022;21.444;2024-02-23T03:58:37;37.95;;;20.10;;
82760;SDS011;72498;42.022;21.444;2024-02-23T04:01:08;37.42;;;20.15;;
82760;SDS011;72498;42.022;21.444;2024-02-23T04:03:35;38.30;;;20.25;;
82760;SDS011;72498;42.022;21.444;2024-02-23T04:06:01;38.47;;;20.67;;
82760;SDS011;72498;42.022;21.444;2024-02-23T04:08:27;39.00;;;21.02;;
82760;SDS011;72498;42.022;21.444;2024-02-23T04:10:56;39.55;;;20.48;;
82760;SDS011;72498;42.022;21.444;2024-02-23T04:13:22;40.80;;;21.15;;
82760;SDS011;72498;42.022;21.444;2024-02-23T04:15:49;41.80;;;20.55;;
82760;SDS011;72498;42.022;21.444;2024-02-23T04:18:17;40.17;;;20.17;;
82760;SDS011;72498;42.022;21.444;2024-02-23T04:20:44;36.13;;;20.27;;
82760;SDS011;72498;42.022;21.444;2024-02-23T04:23:10;37.70;;;20.15;;
82760;SDS011;72498;42.022;21.444;2024-02-23T04:25:36;40.65;;;20.13;;
82760;SDS011;72498;42.022;21.444;2024-02-23T04:28:08;40.47;;;20.63;;
82760;SDS011;72498;42.022;21.444;2024-02-23T04:30:34;40.08;;;20.33;;
82760;SDS011;72498;42.022;21.444;2024-02-23T04:33:00;34.28;;;18.92;;
82760;SDS011;72498;42.022;21.444;2024-02-23T04:35:27;35.60;;;20.15;;
82760;SDS011;72498;42.022;21.444;2024-02-23T04:37:54;33.70;;;19.70;;
82760;SDS011;72498;42.022;21.444;2024-02-23T04:40:20;34.95;;;19.35;;
82760;SDS011;72498;42.022;21.444;2024-02-23T04:42:48;35.40;;;19.48;;
82760;SDS011;72498;42.022;21.444;2024-02-23T04:45:15;37.47;;;19.58;;
82760;SDS011;72498;42.022;21.444;2024-02-23T04:47:41;42.15;;;20.33;;
82760;SDS011;72498;42.022;21.444;2024-02-23T04:50:07;38.90;;;19.42;;
82760;SDS011;72498;42.022;21.444;2024-02-23T04:52:34;37.80;;;20.10;;
82760;SDS011;72498;42.022;21.444;2024-02-23T04:55:00;38.15;;;19.67;;
82760;SDS011;72498;42.022;21.444;2024-02-23T04:57:26;43.83;;;22.10;;
82760;SDS011;72498;42.022;21.444;2024-02-23T04:59:52;39.30;;;22.00;;
82760;SDS011;72498;42.022;21.444;2024-02-23T05:02:19;38.10;;;19.63;;
82760;SDS011;72498;42.022;21.444;2024-02-23T05:04:45;36.17;;;20.50;;
82760;SDS011;72498;42.022;21.444;2024-02-23T05:07:11;38.75;;;20.48;;
82760;SDS011;72498;42.022;21.444;2024-02-23T05:09:37;30.15;;;17.15;;
82760;SDS011;72498;42.022;21.444;2024-02-23T05:12:06;33.25;;;18.23;;
82760;SDS011;72498;42.022;21.444;2024-02-23T05:14:32;35.88;;;18.50;;
82760;SDS011;72498;42.022;21.444;2024-02-23T05:16:58;35.13;;;17.08;;
82760;SDS011;72498;42.022;21.444;2024-02-23T05:19:24;32.95;;;16.92;;
82760;SDS011;72498;42.022;21.444;2024-02-23T05:21:51;37.80;;;17.48;;
82760;SDS011;72498;42.022;21.444;2024-02-23T05:24:19;33.35;;;18.00;;
82760;SDS011;72498;42.022;21.444;2024-02-23T05:26:46;33.13;;;17.48;;
82760;SDS011;72498;42.022;21.444;2024-02-23T05:29:21;80.13;;;22.23;;
82760;SDS011;72498;42.022;21.444;2024-02-23T05:31:51;29.77;;;17.90;;
82760;SDS011;72498;42.022;21.444;2024-02-23T05:34:17;33.10;;;17.55;;
82760;SDS011;72498;42.022;21.444;2024-02-23T05:36:47;36.53;;;19.63;;
82760;SDS011;72498;42.022;21.444;2024-02-23T05:39:14;38.58;;;19.02;;
82760;SDS011;72498;42.022;21.444;2024-02-23T05:41:44;38.55;;;18.45;;
82760;SDS011;72498;42.022;21.444;2024-02-23T05:44:10;34.30;;;17.20;;
82760;SDS011;72498;42.022;21.444;2024-02-23T05:46:38;35.45;;;17.70;;
82760;SDS011;72498;42.022;21.444;2024-02-23T05:49:04;36.63;;;18.95;;
82760;SDS011;72498;42.022;21.444;2024-02-23T05:51:33;37.80;;;19.60;;
82760;SDS011;72498;42.022;21.444;2024-02-23T05:54:00;39.90;;;20.88;;
82760;SDS011;72498;42.022;21.444;2024-02-23T05:56:26;33.70;;;18.70;;
82760;SDS011;72498;42.022;21.444;2024-02-23T05:58:52;38.17;;;19.45;;
82760;SDS011;72498;42.022;21.444;2024-02-23T06:01:21;34.58;;;19.23;;
82760;SDS011;72498;42.022;21.444;2024-02-23T06:03:50;31.48;;;17.75;;
82760;SDS011;72498;42.022;21.444;2024-02-23T06:06:21;34.65;;;18.65;;
82760;SDS011;72498;42.022;21.444;2024-02-23T06:08:48;32.88;;;17.17;;
82760;SDS011;72498;42.022;21.444;2024-02-23T06:11:14;30.92;;;18.13;;
82760;SDS011;72498;42.022;21.444;2024-02-23T06:13:41;32.90;;;18.50;;
82760;SDS011;72498;42.022;21.444;2024-02-23T06:16:10;31.55;;;17.88;;
82760;SDS011;72498;42.022;21.444;2024-02-23T06:18:44;31.48;;;18.35;;
82760;SDS011;72498;42.022;21.444;2024-02-23T06:21:17;34.45;;;18.08;;
82760;SDS011;72498;42.022;21.444;2024-02-23T06:23:48;34.33;;;18.98;;
82760;SDS011;72498;42.022;21.444;2024-02-23T06:26:20;35.00;;;17.88;;
82760;SDS011;72498;42.022;21.444;2024-02-23T06:29:01;33.33;;;17.88;;
82760;SDS011;72498;42.022;21.444;2024-02-23T06:31:48;34.17;;;17.20;;
82760;SDS011;72498;42.022;21.444;2024-02-23T06:37:49;35.38;;;19.08;;
82760;SDS011;72498;42.022;21.444;2024-02-23T06:43:33;33.92;;;17.00;;
82760;SDS011;72498;42.022;21.444;2024-02-23T06:46:08;32.10;;;17.40;;
82760;SDS011;72498;42.022;21.444;2024-02-23T06:49:02;31.88;;;18.98;;
82760;SDS011;72498;42.022;21.444;2024-02-23T06:51:51;36.53;;;19.08;;
82760;SDS011;72498;42.022;21.444;2024-02-23T06:57:23;31.65;;;18.00;;
82760;SDS011;72498;42.022;21.444;2024-02-23T06:59:53;33.42;;;18.48;;
82760;SDS011;72498;42.022;21.444;2024-02-23T07:02:19;29.90;;;18.67;;
82760;SDS011;72498;42.022;21.444;2024-02-23T07:04:48;29.35;;;16.63;;
82760;SDS011;72498;42.022;21.444;2024-02-23T07:07:24;33.03;;;17.42;;
82760;SDS011;72498;42.022;21.444;2024-02-23T07:10:21;39.45;;;18.52;;
82760;SDS011;72498;42.022;21.444;2024-02-23T07:12:59;30.73;;;16.67;;
82760;SDS011;72498;42.022;21.444;2024-02-23T07:22:05;32.63;;;18.63;;
82760;SDS011;72498;42.022;21.444;2024-02-23T07:25:04;30.25;;;16.30;;
82760;SDS011;72498;42.022;21.444;2024-02-23T07:28:26;30.35;;;18.15;;
82760;SDS011;72498;42.022;21.444;2024-02-23T07:30:59;31.55;;;18.08;;
82760;SDS011;72498;42.022;21.444;2024-02-23T07:37:03;35.20;;;17.98;;
82760;SDS011;72498;42.022;21.444;2024-02-23T07:39:38;34.17;;;20.65;;
82760;SDS011;72498;42.022;21.444;2024-02-23T07:42:28;34.17;;;20.17;;
82760;SDS011;72498;42.022;21.444;2024-02-23T08:05:50;42.50;;;23.27;;
82760;SDS011;72498;42.022;21.444;2024-02-23T08:08:41;33.63;;;18.30;;
82760;SDS011;72498;42.022;21.444;2024-02-23T08:11:10;26.92;;;13.32;;
82760;SDS011;72498;42.022;21.444;2024-02-23T08:13:55;31.85;;;17.00;;
82760;SDS011;72498;42.022;21.444;2024-02-23T08:16:29;32.42;;;16.85;;
82760;SDS011;72498;42.022;21.444;2024-02-23T09:14:04;22.20;;;13.60;;
82760;SDS011;72498;42.022;21.444;2024-02-23T09:16:37;21.73;;;13.73;;
82760;SDS011;72498;42.022;21.444;2024-02-23T09:19:19;24.42;;;12.95;;
82760;SDS011;72498;42.022;21.444;2024-02-23T09:22:09;23.30;;;13.70;;
82760;SDS011;72498;42.022;21.444;2024-02-23T09:27:59;20.58;;;13.85;;
82760;SDS011;72498;42.022;21.444;2024-02-23T09:33:12;25.23;;;14.75;;
82760;SDS011;72498;42.022;21.444;2024-02-23T09:39:01;21.90;;;13.93;;
82760;SDS011;72498;42.022;21.444;2024-02-23T09:45:04;22.02;;;13.55;;
82760;SDS011;72498;42.022;21.444;2024-02-23T09:51:00;22.25;;;14.02;;
82760;SDS011;72498;42.022;21.444;2024-02-23T09:53:49;23.27;;;12.75;;
82760;SDS011;72498;42.022;21.444;2024-02-23T10:05:53;24.63;;;11.82;;
82760;SDS011;72498;42.022;21.444;2024-02-23T10:08:25;19.90;;;12.48;;
82760;SDS011;72498;42.022;21.444;2024-02-23T10:10:54;23.17;;;14.13;;
82760;SDS011;72498;42.022;21.444;2024-02-23T10:13:46;21.73;;;13.38;;
82760;SDS011;72498;42.022;21.444;2024-02-23T10:16:46;21.17;;;13.05;;
82760;SDS011;72498;42.022;21.444;2024-02-23T10:19:34;22.00;;;14.20;;
82760;SDS011;72498;42.022;21.444;2024-02-23T10:29:51;24.23;;;13.50;;
82760;SDS011;72498;42.022;21.444;2024-02-23T10:32:21;18.48;;;12.82;;
82760;SDS011;72498;42.022;21.444;2024-02-23T10:35:04;18.38;;;12.20;;
82760;SDS011;72498;42.022;21.444;2024-02-23T10:37:33;18.95;;;11.77;;
82760;SDS011;72498;42.022;21.444;2024-02-23T10:40:00;22.80;;;11.57;;
82760;SDS011;72498;42.022;21.444;2024-02-23T10:42:33;17.10;;;11.70;;
82760;SDS011;72498;42.022;21.444;2024-02-23T10:45:01;19.25;;;12.13;;
82760;SDS011;72498;42.022;21.444;2024-02-23T10:47:34;15.63;;;11.43;;
82760;SDS011;72498;42.022;21.444;2024-02-23T10:50:10;15.95;;;10.48;;
82760;SDS011;72498;42.022;21.444;2024-02-23T10:52:45;18.48;;;12.23;;
82760;SDS011;72498;42.022;21.444;2024-02-23T10:55:12;16.33;;;10.73;;
82760;SDS011;72498;42.022;21.444;2024-02-23T11:00:15;16.15;;;9.18;;
82760;SDS011;72498;42.022;21.444;2024-02-23T11:02:45;15.82;;;9.23;;
82760;SDS011;72498;42.022;21.444;2024-02-23T11:05:12;13.80;;;10.20;;
82760;SDS011;72498;42.022;21.444;2024-02-23T11:07:41;14.77;;;10.23;;
82760;SDS011;72498;42.022;21.444;2024-02-23T11:10:07;13.55;;;8.93;;
82760;SDS011;72498;42.022;21.444;2024-02-23T11:12:37;16.23;;;9.13;;
82760;SDS011;72498;42.022;21.444;2024-02-23T11:15:04;13.80;;;7.20;;
82760;SDS011;72498;42.022;21.444;2024-02-23T11:17:30;12.05;;;7.15;;
82760;SDS011;72498;42.022;21.444;2024-02-23T11:19:57;11.65;;;7.28;;
82760;SDS011;72498;42.022;21.444;2024-02-23T11:25:00;13.30;;;6.47;;
82760;SDS011;72498;42.022;21.444;2024-02-23T11:27:34;10.95;;;5.97;;
82760;SDS011;72498;42.022;21.444;2024-02-23T11:32:37;10.20;;;5.00;;
82760;SDS011;72498;42.022;21.444;2024-02-23T11:35:05;10.05;;;6.18;;
82760;SDS011;72498;42.022;21.444;2024-02-23T11:40:06;10.68;;;4.03;;
82760;SDS011;72498;42.022;21.444;2024-02-23T11:42:56;7.75;;;3.75;;
82760;SDS011;72498;42.022;21.444;2024-02-23T11:45:30;5.85;;;3.00;;
82760;SDS011;72498;42.022;21.444;2024-02-23T11:50:47;8.35;;;4.50;;
82760;SDS011;72498;42.022;21.444;2024-02-23T11:53:24;6.85;;;3.80;;
82760;SDS011;72498;42.022;21.444;2024-02-23T11:55:53;7.47;;;4.68;;
82760;SDS011;72498;42.022;21.444;2024-02-23T11:58:19;12.32;;;4.35;;
82760;SDS011;72498;42.022;21.444;2024-02-23T12:03:21;5.50;;;2.95;;
82760;SDS011;72498;42.022;21.444;2024-02-23T12:05:52;8.40;;;2.97;;
82760;SDS011;72498;42.022;21.444;2024-02-23T12:08:23;9.10;;;2.90;;
82760;SDS011;72498;42.022;21.444;2024-02-23T12:11:03;6.25;;;2.58;;
82760;SDS011;72498;42.022;21.444;2024-02-23T12:13:55;8.05;;;3.88;;
82760;SDS011;72498;42.022;21.444;2024-02-23T12:16:33;8.60;;;3.97;;
82760;SDS011;72498;42.022;21.444;2024-02-23T12:19:03;7.47;;;3.42;;
82760;SDS011;72498;42.022;21.444;2024-02-23T12:21:29;8.38;;;3.53;;
82760;SDS011;72498;42.022;21.444;2024-02-23T12:23:56;6.50;;;2.85;;
82760;SDS011;72498;42.022;21.444;2024-02-23T12:26:35;8.45;;;2.90;;
82760;SDS011;72498;42.022;21.444;2024-02-23T12:29:04;6.93;;;3.13;;
82760;SDS011;72498;42.022;21.444;2024-02-23T12:52:48;7.28;;;3.97;;
82760;SDS011;72498;42.022;21.444;2024-02-23T12:55:17;6.85;;;2.85;;
82760;SDS011;72498;42.022;21.444;2024-02-23T12:57:55;7.25;;;2.97;;
82760;SDS011;72498;42.022;21.444;2024-02-23T15:27:05;27.05;;;10.20;;
82760;SDS011;72498;42.022;21.444;2024-02-23T15:29:31;19.08;;;9.68;;
82760;SDS011;72498;42.022;21.444;2024-02-23T15:32:19;19.63;;;9.15;;
82760;SDS011;72498;42.022;21.444;2024-02-23T15:34:56;15.40;;;9.02;;
82760;SDS011;72498;42.022;21.444;2024-02-23T15:37:51;19.55;;;10.30;;
82760;SDS011;72498;42.022;21.444;2024-02-23T15:40:20;22.85;;;10.25;;
82760;SDS011;72498;42.022;21.444;2024-02-23T16:01:19;29.67;;;15.60;;
82760;SDS011;72498;42.022;21.444;2024-02-23T16:03:46;38.03;;;19.38;;
82760;SDS011;72498;42.022;21.444;2024-02-23T16:06:16;30.00;;;15.55;;
82760;SDS011;72498;42.022;21.444;2024-02-23T16:09:00;32.92;;;15.85;;
82760;SDS011;72498;42.022;21.444;2024-02-23T16:35:02;25.70;;;13.85;;
82760;SDS011;72498;42.022;21.444;2024-02-23T16:37:30;23.60;;;12.30;;
82760;SDS011;72498;42.022;21.444;2024-02-23T16:45:10;25.15;;;13.13;;
82760;SDS011;72498;42.022;21.444;2024-02-23T16:47:37;23.85;;;13.38;;
82760;SDS011;72498;42.022;21.444;2024-02-23T16:50:19;27.63;;;14.50;;
82760;SDS011;72498;42.022;21.444;2024-02-23T17:00:33;37.53;;;16.70;;
82760;SDS011;72498;42.022;21.444;2024-02-23T17:03:03;37.05;;;18.33;;
82760;SDS011;72498;42.022;21.444;2024-02-23T17:05:39;34.17;;;19.58;;
82760;SDS011;72498;42.022;21.444;2024-02-23T17:34:31;26.52;;;12.00;;
82760;SDS011;72498;42.022;21.444;2024-02-23T17:37:00;23.40;;;12.00;;
82760;SDS011;72498;42.022;21.444;2024-02-23T17:39:27;22.77;;;12.05;;
82760;SDS011;72498;42.022;21.444;2024-02-23T17:44:29;25.20;;;12.98;;
82760;SDS011;72498;42.022;21.444;2024-02-23T17:46:56;26.80;;;14.63;;
82760;SDS011;72498;42.022;21.444;2024-02-23T17:49:27;32.92;;;16.65;;
82760;SDS011;72498;42.022;21.444;2024-02-23T17:52:02;35.95;;;18.52;;
82760;SDS011;72498;42.022;21.444;2024-02-23T17:54:33;36.88;;;17.75;;
82760;SDS011;72498;42.022;21.444;2024-02-23T17:57:06;32.00;;;17.67;;
82760;SDS011;72498;42.022;21.444;2024-02-23T18:41:46;21.33;;;12.50;;
82760;SDS011;72498;42.022;21.444;2024-02-23T18:44:14;21.98;;;12.50;;
82760;SDS011;72498;42.022;21.444;2024-02-23T18:54:30;18.90;;;11.10;;
82760;SDS011;72498;42.022;21.444;2024-02-23T20:06:15;22.75;;;11.38;;
82760;SDS011;72498;42.022;21.444;2024-02-23T20:38:33;35.03;;;16.77;;
82760;SDS011;72498;42.022;21.444;2024-02-23T22:37:18;17.45;;;7.25;;
82760;SDS011;72498;42.022;21.444;2024-02-23T23:19:41;6.50;;;2.97;;
82760;SDS011;72498;42.022;21.444;2024-02-23T23:22:08;8.52;;;3.63;;
82760;SDS011;72498;42.022;21.444;2024-02-23T23:24:34;11.35;;;4.10;;
82760;SDS011;72498;42.022;21.444;2024-02-23T23:27:10;8.32;;;3.75;;
82760;SDS011;72498;42.022;21.444;2024-02-23T23:29:57;10.02;;;3.55;;
82760;SDS011;72498;42.022;21.444;2024-02-23T23:32:45;9.80;;;5.25;;
82760;SDS011;72498;42.022;21.444;2024-02-23T23:38:06;9.93;;;3.90;;
82760;SDS011;72498;42.022;21.444;2024-02-23T23:40:41;10.38;;;5.15;;
82760;SDS011;72498;42.022;21.444;2024-02-23T23:43:10;9.38;;;4.05;;
82760;SDS011;72498;42.022;21.444;2024-02-23T23:45:36;10.25;;;4.60;;
82760;SDS011;72498;42.022;21.444;2024-02-23T23:48:03;10.82;;;4.88;;
82760;SDS011;72498;42.022;21.444;2024-02-23T23:50:30;8.23;;;4.53;;
82760;SDS011;72498;42.022;21.444;2024-02-23T23:52:56;9.93;;;4.53;;
82760;SDS011;72498;42.022;21.444;2024-02-23T23:55:26;9.25;;;3.88;;
82760;SDS011;72498;42.022;21.444;2024-02-23T23:58:06;9.05;;;3.80;;
